Time;durP1;ratioP1;P1;durP2;ratioP2;P2;SDS_P1;SDS_P2;PMS_P1;PMS_P2;Temp;Humidity;BMP_temperature;BMP_pressure;BME280_temperature;BME280_humidity;BME280_pressure;Samples;Min_cycle;Max_cycle;Signal;HPM_P1;HPM_P2
2022/06/16 00:00:53;;;;;;;;;;;;;;;-143.90;100.00;55007.97;3038590;19;19947;-62
2022/06/16 00:01:54;;;;;;;;;;;;;;;-143.90;100.00;54990.09;3046372;19;19949;-62
2022/06/16 00:02:55;;;;;;;;;;;;;;;-143.90;100.00;54976.19;3046857;19;19998;-62
2022/06/16 00:03:56;;;;;;;;;;;;;;;-143.90;100.00;55009.97;3048501;19;19939;-62
2022/06/16 00:04:57;;;;;;;;;;;;;;;-143.90;100.00;54966.28;3041382;19;19919;-62
2022/06/16 00:05:57;;;;;;;;;;;;;;;-143.90;100.00;54994.06;3046137;19;19922;-62
2022/06/16 00:06:59;;;;;;;;;;;;;;;-143.90;100.00;54996.06;3046154;19;19919;-62
2022/06/16 00:08:01;;;;;;;;;;;;;;;-143.90;100.00;54996.06;3046308;19;19938;-62
2022/06/16 00:09:02;;;;;;;;;;;;;;;-143.90;100.00;54968.25;3044514;19;19918;-62
2022/06/16 00:10:03;;;;;;;;;;;;;;;-143.90;100.00;55002.00;3046955;19;19927;-62
2022/06/16 00:11:16;;;;;;;;;;;;;;;-143.90;100.00;54956.34;3042906;19;19935;-62
2022/06/16 00:12:17;;;;;;;;;;;;;;;-143.90;100.00;54980.19;3047210;19;19915;-62
2022/06/16 00:13:18;;;;;;;;;;;;;;;-143.90;100.00;54950.38;3046772;19;19925;-61
2022/06/16 00:14:19;;;;;;;;;;;;;;;-143.90;100.00;54988.13;3046192;19;20264;-62
2022/06/16 00:15:21;;;;;;;;;;;;;;;-143.90;100.00;54984.16;3045563;19;20019;-61
2022/06/16 00:16:22;;;;;;;;;;;;;;;-143.90;100.00;55000.03;3046730;19;19992;-62
2022/06/16 00:17:23;;;;;;;;;;;;;;;-143.90;100.00;54964.28;3044805;19;19918;-62
2022/06/16 00:18:24;;;;;;;;;;;;;;;-143.90;100.00;54956.34;3046664;19;19918;-62
2022/06/16 00:19:24;;;;;;;;;;;;;;;-143.90;100.00;54932.53;3046452;19;20403;-61
2022/06/16 00:20:25;;;;;;;;;;;;;;;-143.90;100.00;54996.06;3045155;19;19921;-62
2022/06/16 00:21:26;;;;;;;;;;;;;;;-143.90;100.00;54968.25;3044169;19;19931;-62
2022/06/16 00:22:27;;;;;;;;;;;;;;;-143.90;100.00;55007.97;3045978;19;19929;-62
2022/06/16 00:23:28;;;;;;;;;;;;;;;-143.90;100.00;54964.28;3046227;19;19986;-61
2022/06/16 00:24:29;;;;;;;;;;;;;;;-143.90;100.00;54976.19;3046019;19;19959;-62
2022/06/16 00:25:31;;;;;;;;;;;;;;;-143.90;100.00;54988.13;3045821;19;19919;-62
2022/06/16 00:26:32;;;;;;;;;;;;;;;-143.90;100.00;54972.22;3044852;19;19915;-62
2022/06/16 00:27:33;;;;;;;;;;;;;;;-143.90;100.00;54976.19;3045360;19;20713;-62
2022/06/16 00:28:34;;;;;;;;;;;;;;;-143.90;100.00;54992.09;3044975;19;19935;-62
2022/06/16 00:29:35;;;;;;;;;;;;;;;-143.90;100.00;54980.19;3044826;19;20383;-62
2022/06/16 00:30:36;;;;;;;;;;;;;;;-143.90;100.00;54952.38;3044203;19;19944;-62
2022/06/16 00:31:37;;;;;;;;;;;;;;;-143.90;100.00;55006.00;3043912;19;19926;-62
2022/06/16 00:32:39;;;;;;;;;;;;;;;-143.90;100.00;54992.09;3043078;19;20565;-62
2022/06/16 00:33:40;;;;;;;;;;;;;;;-143.90;100.00;54960.31;3047181;19;19926;-63
2022/06/16 00:34:41;;;;;;;;;;;;;;;-143.90;100.00;54996.06;3041311;19;19993;-63
2022/06/16 00:35:41;;;;;;;;;;;;;;;-143.90;100.00;54994.06;3044039;19;19933;-62
2022/06/16 00:36:42;;;;;;;;;;;;;;;-143.90;100.00;55004.00;3043454;19;20351;-62
2022/06/16 00:37:43;;;;;;;;;;;;;;;-143.90;100.00;54980.19;3047496;19;20007;-62
2022/06/16 00:38:44;;;;;;;;;;;;;;;-143.90;100.00;55000.03;3041940;19;19926;-63
2022/06/16 00:39:46;;;;;;;;;;;;;;;-143.90;100.00;54992.09;3043886;19;19927;-62
2022/06/16 00:40:47;;;;;;;;;;;;;;;-143.90;100.00;54952.38;3045454;19;19926;-63
2022/06/16 00:41:47;;;;;;;;;;;;;;;-143.90;100.00;54972.22;3044218;19;19962;-62
2022/06/16 00:42:48;;;;;;;;;;;;;;;-143.90;100.00;55004.00;3045421;19;20362;-62
2022/06/16 00:43:49;;;;;;;;;;;;;;;-143.90;100.00;54984.16;3046057;19;19948;-61
2022/06/16 00:44:51;;;;;;;;;;;;;;;-143.90;100.00;54992.09;3041234;19;19921;-62
2022/06/16 00:46:01;;;;;;;;;;;;;;;-143.90;100.00;54968.25;3046812;19;19939;-62
2022/06/16 00:47:01;;;;;;;;;;;;;;;-143.90;100.00;54992.09;3045868;19;19927;-62
2022/06/16 00:48:02;;;;;;;;;;;;;;;-143.90;100.00;54994.06;3045079;19;19986;-62
2022/06/16 00:49:04;;;;;;;;;;;;;;;-143.90;100.00;54956.34;3050345;19;19918;-62
2022/06/16 00:50:05;;;;;;;;;;;;;;;-143.90;100.00;55007.97;3046988;19;19922;-63
2022/06/16 00:51:07;;;;;;;;;;;;;;;-143.90;100.00;54980.19;3046259;19;19923;-62
2022/06/16 00:52:10;;;;;;;;;;;;;;;-143.90;100.00;55027.81;3046808;19;19934;-62
2022/06/16 00:53:11;;;;;;;;;;;;;;;-143.90;100.00;54982.16;3048692;19;19960;-61
2022/06/16 00:54:15;;;;;;;;;;;;;;;-143.90;100.00;54980.19;3049250;19;19914;-62
2022/06/16 00:55:16;;;;;;;;;;;;;;;-143.90;100.00;54988.13;3047901;19;19923;-61
2022/06/16 00:56:17;;;;;;;;;;;;;;;-143.90;100.00;54958.34;3048561;19;19931;-63
2022/06/16 00:57:20;;;;;;;;;;;;;;;-143.90;100.00;55015.91;3047244;19;20394;-61
2022/06/16 00:58:21;;;;;;;;;;;;;;;-143.90;100.00;55007.97;3047283;19;20810;-62
2022/06/16 00:59:22;;;;;;;;;;;;;;;-143.90;100.00;54996.06;3049302;19;20289;-62
2022/06/16 01:01:08;;;;;;;;;;;;;;;-143.90;100.00;55041.72;3044849;19;19933;-62
2022/06/16 01:01:44;;;;;;;;;;;;;;;-143.90;100.00;54996.06;3045709;19;20379;-62
2022/06/16 01:02:45;;;;;;;;;;;;;;;-143.90;100.00;54956.34;3050168;19;19930;-61
2022/06/16 01:05:05;;;;;;;;;;;;;;;-143.90;100.00;54976.19;3046075;19;20263;-62
2022/06/16 01:06:17;;;;;;;;;;;;;;;-143.90;100.00;54984.16;3049552;19;19922;-62
2022/06/16 01:07:24;;;;;;;;;;;;;;;-143.90;100.00;54980.19;3049695;19;19922;-62
2022/06/16 01:08:25;;;;;;;;;;;;;;;-143.90;100.00;54980.19;3047721;19;19926;-62
2022/06/16 01:09:28;;;;;;;;;;;;;;;-143.90;100.00;54992.09;3048417;19;21000;-62
2022/06/16 01:10:30;;;;;;;;;;;;;;;-143.90;100.00;54966.28;3046413;19;19923;-62
2022/06/16 01:14:54;;;;;;;;;;;;;;;-143.90;100.00;54984.16;3043950;19;19918;-62
2022/06/16 01:15:55;;;;;;;;;;;;;;;-143.90;100.00;54976.19;3044994;19;19948;-61
2022/06/16 01:16:56;;;;;;;;;;;;;;;-143.90;100.00;54960.31;3048246;19;19951;-62
2022/06/16 01:18:00;;;;;;;;;;;;;;;-143.90;100.00;54976.19;3046548;19;19959;-62
2022/06/16 01:19:04;;;;;;;;;;;;;;;-143.90;100.00;54988.13;3047294;19;19922;-62
2022/06/16 01:20:31;;;;;;;;;;;;;;;-143.90;100.00;54980.19;3047881;19;19947;-62
2022/06/16 01:21:52;;;;;;;;;;;;;;;-143.90;100.00;55004.00;3047509;19;19928;-62
2022/06/16 01:22:55;;;;;;;;;;;;;;;-143.90;100.00;54972.22;3048619;19;19946;-62
2022/06/16 01:23:57;;;;;;;;;;;;;;;-143.90;100.00;54954.38;3048189;19;20272;-61
2022/06/16 01:25:17;;;;;;;;;;;;;;;-143.90;100.00;54970.25;3047383;19;19923;-62
2022/06/16 01:26:33;;;;;;;;;;;;;;;-143.90;100.00;54984.16;3047602;19;19934;-61
2022/06/16 01:27:37;;;;;;;;;;;;;;;-143.90;100.00;54992.09;3048107;19;19946;-62
2022/06/16 01:28:42;;;;;;;;;;;;;;;-143.90;100.00;55000.03;3047141;19;20280;-62
2022/06/16 01:29:55;;;;;;;;;;;;;;;-143.90;100.00;54988.13;3045738;19;19922;-61
2022/06/16 01:31:00;;;;;;;;;;;;;;;-143.90;100.00;55011.94;3047378;19;20297;-61
2022/06/16 01:32:01;;;;;;;;;;;;;;;-143.90;100.00;55011.94;3045520;19;19923;-62
2022/06/16 01:33:08;;;;;;;;;;;;;;;-143.90;100.00;54944.44;3046205;19;19919;-62
2022/06/16 01:34:27;;;;;;;;;;;;;;;-143.90;100.00;54992.09;3048076;19;19918;-62
2022/06/16 01:35:35;;;;;;;;;;;;;;;-143.90;100.00;54968.25;3044340;19;19939;-62
2022/06/16 01:36:43;;;;;;;;;;;;;;;-143.90;100.00;54976.19;3045642;19;19950;-62
2022/06/16 01:37:46;;;;;;;;;;;;;;;-143.90;100.00;55011.94;3047381;19;19922;-62
2022/06/16 01:38:58;;;;;;;;;;;;;;;-143.90;100.00;54976.19;3043565;19;20022;-62
2022/06/16 01:40:01;;;;;;;;;;;;;;;-143.90;100.00;55025.84;3043860;19;19999;-61
2022/06/16 01:41:08;;;;;;;;;;;;;;;-143.90;100.00;54948.41;3046236;19;19922;-62
2022/06/16 01:42:37;;;;;;;;;;;;;;;-143.90;100.00;54980.19;3048454;19;20308;-61
2022/06/16 01:43:42;;;;;;;;;;;;;;;-143.90;100.00;54978.19;3046803;19;19922;-62
2022/06/16 01:44:48;;;;;;;;;;;;;;;-143.90;100.00;54988.13;3044585;19;20358;-62
2022/06/16 01:45:52;;;;;;;;;;;;;;;-143.90;100.00;54984.16;3047502;19;19994;-62
2022/06/16 01:46:55;;;;;;;;;;;;;;;-143.90;100.00;55000.03;3046534;19;20394;-62
2022/06/16 01:48:00;;;;;;;;;;;;;;;-143.90;100.00;54972.22;3045356;19;20218;-62
2022/06/16 01:49:12;;;;;;;;;;;;;;;-143.90;100.00;54984.16;3048212;19;19937;-62
2022/06/16 01:50:15;;;;;;;;;;;;;;;-143.90;100.00;54984.16;3046366;19;19953;-62
2022/06/16 01:51:19;;;;;;;;;;;;;;;-143.90;100.00;54990.09;3042898;19;20035;-62
2022/06/16 01:52:24;;;;;;;;;;;;;;;-143.90;100.00;54998.03;3046892;19;19930;-62
2022/06/16 01:53:44;;;;;;;;;;;;;;;-143.90;100.00;55000.03;3049480;19;20772;-62
2022/06/16 01:54:51;;;;;;;;;;;;;;;-143.90;100.00;54976.19;3047665;19;19919;-62
2022/06/16 01:55:55;;;;;;;;;;;;;;;-143.90;100.00;54986.13;3040093;19;20979;-61
2022/06/16 01:56:59;;;;;;;;;;;;;;;-143.90;100.00;54982.16;3049125;19;19931;-62
2022/06/16 01:58:01;;;;;;;;;;;;;;;-143.90;100.00;55027.81;3045778;19;19926;-61
2022/06/16 01:59:03;;;;;;;;;;;;;;;-143.90;100.00;54972.22;3045767;19;19947;-62
2022/06/16 02:00:09;;;;;;;;;;;;;;;-143.90;100.00;55019.88;3046182;19;19923;-61
2022/06/16 02:01:20;;;;;;;;;;;;;;;-143.90;100.00;54984.16;3049013;19;20577;-61
2022/06/16 02:02:21;;;;;;;;;;;;;;;-143.90;100.00;54948.41;3048342;19;19926;-64
2022/06/16 02:03:27;;;;;;;;;;;;;;;-143.90;100.00;54988.13;3047814;19;19933;-61
2022/06/16 02:04:44;;;;;;;;;;;;;;;-143.90;100.00;54954.38;3045962;19;19939;-61
2022/06/16 02:05:51;;;;;;;;;;;;;;;-143.90;100.00;54968.25;3048110;19;19958;-61
2022/06/16 02:06:54;;;;;;;;;;;;;;;-143.90;100.00;55007.97;3048089;19;19975;-62
2022/06/16 02:07:59;;;;;;;;;;;;;;;-143.90;100.00;54988.13;3045965;19;19922;-61
2022/06/16 02:09:19;;;;;;;;;;;;;;;-143.90;100.00;54964.28;3045959;19;19930;-62
2022/06/16 02:10:25;;;;;;;;;;;;;;;-143.90;100.00;54970.25;3048145;19;19957;-61
2022/06/16 02:11:28;;;;;;;;;;;;;;;-143.90;100.00;54988.13;3048341;19;20372;-62
2022/06/16 02:14:03;;;;;;;;;;;;;;;-143.90;100.00;55004.00;3049222;19;19963;-62
2022/06/16 02:15:08;;;;;;;;;;;;;;;-143.90;100.00;54966.28;3048419;19;19926;-61
2022/06/16 02:16:24;;;;;;;;;;;;;;;-143.90;100.00;54990.09;3045898;19;19918;-62
2022/06/16 02:17:26;;;;;;;;;;;;;;;-143.90;100.00;54976.19;3046294;19;19926;-62
2022/06/16 02:18:31;;;;;;;;;;;;;;;-143.90;100.00;54976.19;3046334;19;19922;-62
2022/06/16 02:19:35;;;;;;;;;;;;;;;-143.90;100.00;54982.16;3047395;19;19940;-62
2022/06/16 02:20:38;;;;;;;;;;;;;;;-143.90;100.00;55004.00;3046785;19;20364;-63
2022/06/16 02:21:40;;;;;;;;;;;;;;;-143.90;100.00;55059.59;3048434;19;20312;-62
2022/06/16 02:22:42;;;;;;;;;;;;;;;-143.90;100.00;54964.28;3045825;19;19926;-62
2022/06/16 02:23:45;;;;;;;;;;;;;;;-143.90;100.00;54988.13;3043603;19;19919;-62
2022/06/16 02:24:46;;;;;;;;;;;;;;;-143.90;100.00;54988.13;3047003;19;19927;-62
2022/06/16 02:25:48;;;;;;;;;;;;;;;-143.90;100.00;55017.91;3046576;19;19914;-62
2022/06/16 02:26:51;;;;;;;;;;;;;;;-143.90;100.00;54992.09;3046975;19;19947;-62
2022/06/16 02:27:51;;;;;;;;;;;;;;;-143.90;100.00;55019.88;3048435;19;19934;-62
2022/06/16 02:28:54;;;;;;;;;;;;;;;-143.90;100.00;55017.91;3045379;19;19926;-62
2022/06/16 02:29:57;;;;;;;;;;;;;;;-143.90;100.00;54988.13;3046718;19;19934;-62
2022/06/16 02:31:03;;;;;;;;;;;;;;;-143.90;100.00;54986.13;3046668;19;19945;-61
2022/06/16 02:32:24;;;;;;;;;;;;;;;-143.90;100.00;54988.13;3048937;19;19938;-61
2022/06/16 02:33:29;;;;;;;;;;;;;;;-143.90;100.00;55027.81;3046746;19;19953;-62
2022/06/16 02:34:46;;;;;;;;;;;;;;;-143.90;100.00;54968.25;3048544;19;21067;-62
2022/06/16 02:35:52;;;;;;;;;;;;;;;-143.90;100.00;55011.94;3047456;19;19922;-61
2022/06/16 02:37:03;;;;;;;;;;;;;;;-143.90;100.00;54996.06;3047189;19;19919;-61
2022/06/16 02:38:08;;;;;;;;;;;;;;;-143.90;100.00;55004.00;3047591;19;19923;-62
2022/06/16 02:39:09;;;;;;;;;;;;;;;-143.90;100.00;54996.06;3047133;19;19930;-60
2022/06/16 02:40:17;;;;;;;;;;;;;;;-143.90;100.00;55017.91;3047654;19;19923;-62
2022/06/16 02:41:32;;;;;;;;;;;;;;;-143.90;100.00;54992.09;3046639;19;19918;-61
2022/06/16 02:42:55;;;;;;;;;;;;;;;-143.90;100.00;54996.06;3046571;19;20474;-61
2022/06/16 02:44:08;;;;;;;;;;;;;;;-143.90;100.00;55004.00;3050009;19;19972;-61
2022/06/16 02:45:28;;;;;;;;;;;;;;;-143.90;100.00;55004.00;3048938;19;19967;-61
2022/06/16 02:46:35;;;;;;;;;;;;;;;-143.90;100.00;54986.13;3047531;19;20434;-62
2022/06/16 02:47:58;;;;;;;;;;;;;;;-143.90;100.00;54976.19;3045578;19;19923;-62
2022/06/16 02:49:02;;;;;;;;;;;;;;;-143.90;100.00;55023.84;3045991;19;19943;-61
2022/06/16 02:50:04;;;;;;;;;;;;;;;-143.90;100.00;55002.00;3047110;19;19926;-60
2022/06/16 02:51:08;;;;;;;;;;;;;;;-143.90;100.00;54984.16;3044383;19;19966;-62
2022/06/16 02:52:26;;;;;;;;;;;;;;;-143.90;100.00;54976.19;3043658;19;19926;-62
2022/06/16 02:53:45;;;;;;;;;;;;;;;-143.90;100.00;54992.09;3046004;19;19919;-61
2022/06/16 02:54:47;;;;;;;;;;;;;;;-143.90;100.00;54968.25;3045452;19;20830;-61
2022/06/16 02:55:50;;;;;;;;;;;;;;;-143.90;100.00;54984.16;3046240;19;20796;-62
2022/06/16 02:57:00;;;;;;;;;;;;;;;-143.90;100.00;54954.38;3047968;19;19938;-61
2022/06/16 02:58:01;;;;;;;;;;;;;;;-143.90;100.00;55023.84;3045599;19;19923;-62
2022/06/16 02:59:28;;;;;;;;;;;;;;;-143.90;100.00;54992.09;3045867;19;19946;-62
2022/06/16 03:00:34;;;;;;;;;;;;;;;-143.90;100.00;54984.16;3045610;19;20390;-61
2022/06/16 03:01:35;;;;;;;;;;;;;;;-143.90;100.00;55011.94;3047911;19;19923;-62
2022/06/16 03:02:38;;;;;;;;;;;;;;;-143.90;100.00;55019.88;3046308;19;19926;-61
2022/06/16 03:03:40;;;;;;;;;;;;;;;-143.90;100.00;54964.28;3046599;19;19931;-61
2022/06/16 03:04:47;;;;;;;;;;;;;;;-143.90;100.00;55041.72;3046634;19;19936;-61
2022/06/16 03:05:51;;;;;;;;;;;;;;;-143.90;100.00;54984.16;3046199;19;19927;-62
2022/06/16 03:06:52;;;;;;;;;;;;;;;-143.90;100.00;55019.88;3045072;19;19982;-61
2022/06/16 03:07:54;;;;;;;;;;;;;;;-143.90;100.00;55015.91;3046607;19;19926;-61
2022/06/16 03:08:57;;;;;;;;;;;;;;;-143.90;100.00;55007.97;3045591;19;19930;-61
2022/06/16 03:09:58;;;;;;;;;;;;;;;-143.90;100.00;54978.19;3047253;19;19922;-61
2022/06/16 03:10:59;;;;;;;;;;;;;;;-143.90;100.00;55000.03;3044451;19;19947;-61
2022/06/16 03:12:01;;;;;;;;;;;;;;;-143.90;100.00;55031.78;3045982;19;19949;-61
2022/06/16 03:13:01;;;;;;;;;;;;;;;-143.90;100.00;55023.84;3046487;19;19919;-62
2022/06/16 03:14:02;;;;;;;;;;;;;;;-143.90;100.00;54992.09;3045991;19;20311;-61
2022/06/16 03:15:16;;;;;;;;;;;;;;;-143.90;100.00;54980.19;3047329;19;19938;-61
2022/06/16 03:16:18;;;;;;;;;;;;;;;-143.90;100.00;55006.00;3043936;19;19923;-61
2022/06/16 03:17:18;;;;;;;;;;;;;;;-143.90;100.00;54998.03;3045255;19;19919;-60
2022/06/16 03:18:22;;;;;;;;;;;;;;;-143.90;100.00;54990.09;3046444;19;20371;-61
2022/06/16 03:19:22;;;;;;;;;;;;;;;-143.90;100.00;55007.97;3047730;19;19929;-61
2022/06/16 03:20:24;;;;;;;;;;;;;;;-143.90;100.00;54988.13;3044915;19;19918;-62
2022/06/16 03:21:25;;;;;;;;;;;;;;;-143.90;100.00;54996.06;3045691;19;19922;-62
2022/06/16 03:22:26;;;;;;;;;;;;;;;-143.90;100.00;55027.81;3044405;19;20357;-61
2022/06/16 03:23:27;;;;;;;;;;;;;;;-143.90;100.00;55004.00;3046224;19;20786;-61
2022/06/16 03:24:28;;;;;;;;;;;;;;;-143.90;100.00;54992.09;3044920;19;19949;-61
2022/06/16 03:25:30;;;;;;;;;;;;;;;-143.90;100.00;55019.88;3046835;19;21285;-61
2022/06/16 03:26:32;;;;;;;;;;;;;;;-143.90;100.00;54990.09;3047660;19;20333;-61
2022/06/16 03:27:34;;;;;;;;;;;;;;;-143.90;100.00;55035.78;3047157;19;19926;-62
2022/06/16 03:28:36;;;;;;;;;;;;;;;-143.90;100.00;54984.16;3046529;19;19923;-62
2022/06/16 03:29:42;;;;;;;;;;;;;;;-143.90;100.00;55000.03;3046661;19;20371;-62
2022/06/16 03:30:45;;;;;;;;;;;;;;;-143.90;100.00;55000.03;3046145;19;20034;-62
2022/06/16 03:31:48;;;;;;;;;;;;;;;-143.90;100.00;54988.13;3046137;19;19930;-62
2022/06/16 03:32:49;;;;;;;;;;;;;;;-143.90;100.00;54992.09;3045402;19;19934;-62
2022/06/16 03:33:55;;;;;;;;;;;;;;;-143.90;100.00;54992.09;3042406;19;19997;-62
2022/06/16 03:34:59;;;;;;;;;;;;;;;-143.90;100.00;55019.88;3045392;19;19926;-62
2022/06/16 03:36:03;;;;;;;;;;;;;;;-143.90;100.00;55006.00;3046377;19;20391;-61
2022/06/16 03:37:08;;;;;;;;;;;;;;;-143.90;100.00;54962.31;3044293;19;20012;-62
2022/06/16 03:38:23;;;;;;;;;;;;;;;-143.90;100.00;55039.75;3043379;19;19929;-59
2022/06/16 03:39:24;;;;;;;;;;;;;;;-143.90;100.00;55000.03;3046621;19;19957;-62
2022/06/16 03:40:25;;;;;;;;;;;;;;;-143.90;100.00;54980.19;3044978;19;19950;-61
2022/06/16 03:41:27;;;;;;;;;;;;;;;-143.90;100.00;54992.09;3048162;19;20643;-62
2022/06/16 03:42:32;;;;;;;;;;;;;;;-143.90;100.00;55027.81;3044223;19;19947;-61
2022/06/16 03:43:35;;;;;;;;;;;;;;;-143.90;100.00;55004.00;3046690;19;20405;-62
2022/06/16 03:44:47;;;;;;;;;;;;;;;-143.90;100.00;55002.00;3044473;19;19930;-62
2022/06/16 03:45:50;;;;;;;;;;;;;;;-143.90;100.00;55029.81;3044407;19;20022;-62
2022/06/16 03:46:52;;;;;;;;;;;;;;;-143.90;100.00;55013.94;3043896;19;19926;-61
2022/06/16 03:48:01;;;;;;;;;;;;;;;-143.90;100.00;55039.75;3046345;19;19978;-62
2022/06/16 03:49:02;;;;;;;;;;;;;;;-143.90;100.00;55007.97;3044389;19;19927;-62
2022/06/16 03:50:29;;;;;;;;;;;;;;;-143.90;100.00;55000.03;3044454;19;20010;-62
2022/06/16 03:51:30;;;;;;;;;;;;;;;-143.90;100.00;55011.94;3044134;19;20670;-62
2022/06/16 03:52:32;;;;;;;;;;;;;;;-143.90;100.00;55002.00;3045723;19;20042;-61
2022/06/16 03:53:33;;;;;;;;;;;;;;;-143.90;100.00;55000.03;3045176;19;19927;-62
2022/06/16 03:54:34;;;;;;;;;;;;;;;-143.90;100.00;55011.94;3046053;19;19926;-62
2022/06/16 03:55:38;;;;;;;;;;;;;;;-143.90;100.00;54980.19;3045695;19;19926;-61
2022/06/16 03:56:40;;;;;;;;;;;;;;;-143.90;100.00;55007.97;3044390;19;19919;-61
2022/06/16 03:57:44;;;;;;;;;;;;;;;-143.90;100.00;55004.00;3045251;19;19998;-62
2022/06/16 03:58:54;;;;;;;;;;;;;;;-143.90;100.00;55007.97;3046304;19;20701;-61
2022/06/16 03:59:56;;;;;;;;;;;;;;;-143.90;100.00;54982.16;3044148;19;19926;-62
2022/06/16 04:01:19;;;;;;;;;;;;;;;-143.90;100.00;54970.25;3044824;19;19934;-62
2022/06/16 04:02:20;;;;;;;;;;;;;;;-143.90;100.00;54966.28;3045467;19;19923;-61
2022/06/16 04:04:41;;;;;;;;;;;;;;;-143.90;100.00;55000.03;3045984;19;19919;-62
2022/06/16 04:05:43;;;;;;;;;;;;;;;-143.90;100.00;54960.31;3042541;19;19988;-62
2022/06/16 04:06:48;;;;;;;;;;;;;;;-143.90;100.00;54976.19;3045936;19;19926;-61
2022/06/16 04:07:51;;;;;;;;;;;;;;;-143.90;100.00;54968.25;3045372;19;20056;-62
2022/06/16 04:08:58;;;;;;;;;;;;;;;-143.90;100.00;54966.28;3043952;19;19926;-61
2022/06/16 04:09:59;;;;;;;;;;;;;;;-143.90;100.00;54944.44;3046213;19;20214;-61
2022/06/16 04:11:26;;;;;;;;;;;;;;;-143.90;100.00;54988.13;3043477;19;19926;-63
2022/06/16 04:12:21;;;;;;;;;;;;;;;-143.90;100.00;54968.25;3040143;19;19918;-61
2022/06/16 04:13:22;;;;;;;;;;;;;;;-143.90;100.00;54952.38;3044401;19;19951;-61
2022/06/16 04:14:23;;;;;;;;;;;;;;;-143.90;100.00;54980.19;3044433;19;20017;-60
2022/06/16 04:15:32;;;;;;;;;;;;;;;-143.90;100.00;55004.00;3041447;19;19953;-61
2022/06/16 04:16:36;;;;;;;;;;;;;;;-143.90;100.00;54948.41;3045024;19;19926;-61
2022/06/16 04:17:38;;;;;;;;;;;;;;;-143.90;100.00;54990.09;3042676;19;19934;-61
2022/06/16 04:18:52;;;;;;;;;;;;;;;-143.90;100.00;54952.38;3044356;19;19930;-62
2022/06/16 04:21:23;;;;;;;;;;;;;;;-143.90;100.00;54932.53;3043370;19;19919;-62
2022/06/16 04:22:44;;;;;;;;;;;;;;;-143.90;100.00;54984.16;3044115;19;20306;-62
2022/06/16 04:23:50;;;;;;;;;;;;;;;-143.90;100.00;54956.34;3047324;19;19929;-64
2022/06/16 04:24:52;;;;;;;;;;;;;;;-143.90;100.00;54944.44;3048540;19;19922;-61
2022/06/16 04:25:54;;;;;;;;;;;;;;;-143.90;100.00;54952.38;3047665;19;20376;-61
2022/06/16 04:26:58;;;;;;;;;;;;;;;-143.90;100.00;54944.44;3048922;19;20018;-61
2022/06/16 04:28:00;;;;;;;;;;;;;;;-143.90;100.00;54968.25;3047391;19;19923;-61
2022/06/16 04:29:01;;;;;;;;;;;;;;;-143.90;100.00;54964.28;3047401;19;19919;-62
2022/06/16 04:30:04;;;;;;;;;;;;;;;-143.90;100.00;54918.63;3048013;19;19953;-62
2022/06/16 04:31:04;;;;;;;;;;;;;;;-143.90;100.00;54944.44;3045578;19;19950;-62
2022/06/16 04:32:08;;;;;;;;;;;;;;;-143.90;100.00;54942.44;3048713;19;19926;-62
2022/06/16 04:33:18;;;;;;;;;;;;;;;-143.90;100.00;54958.34;3050108;19;19923;-62
2022/06/16 04:34:19;;;;;;;;;;;;;;;-143.90;100.00;54952.38;3046824;19;19923;-62
2022/06/16 04:35:21;;;;;;;;;;;;;;;-143.90;100.00;54912.66;3045676;19;19918;-62
2022/06/16 04:36:27;;;;;;;;;;;;;;;-143.90;100.00;54972.22;3049683;19;19930;-60
2022/06/16 04:37:36;;;;;;;;;;;;;;;-143.90;100.00;54964.28;3049122;19;19922;-61
2022/06/16 04:38:37;;;;;;;;;;;;;;;-143.90;100.00;54976.19;3047972;19;19918;-61
2022/06/16 04:39:38;;;;;;;;;;;;;;;-143.90;100.00;54936.50;3049710;19;19926;-61
2022/06/16 04:40:39;;;;;;;;;;;;;;;-143.90;100.00;54944.44;3048277;19;19918;-61
2022/06/16 04:41:46;;;;;;;;;;;;;;;-143.90;100.00;54940.47;3047754;19;19929;-61
2022/06/16 04:42:49;;;;;;;;;;;;;;;-143.90;100.00;54952.38;3050427;19;20042;-62
2022/06/16 04:43:50;;;;;;;;;;;;;;;-143.90;99.12;54932.53;3045942;19;19910;-62
2022/06/16 04:44:51;;;;;;;;;;;;;;;-143.90;98.59;54944.44;3047357;19;19914;-62
2022/06/16 04:45:53;;;;;;;;;;;;;;;-143.90;97.04;54914.66;3047288;19;19923;-61
2022/06/16 04:46:57;;;;;;;;;;;;;;;-143.90;94.38;54936.50;3047534;19;19942;-62
2022/06/16 04:48:00;;;;;;;;;;;;;;;-143.90;93.79;54950.38;3048241;19;20473;-62
2022/06/16 04:49:06;;;;;;;;;;;;;;;-143.90;92.30;54942.44;3049569;19;19929;-62
2022/06/16 04:50:18;;;;;;;;;;;;;;;-143.90;95.05;54924.59;3043834;19;19919;-62
2022/06/16 04:51:21;;;;;;;;;;;;;;;-143.90;99.46;54914.66;3046372;19;19923;-61
2022/06/16 04:52:25;;;;;;;;;;;;;;;-143.90;98.38;54944.44;3046983;19;19930;-62
2022/06/16 04:53:28;;;;;;;;;;;;;;;-143.90;98.63;54920.59;3046767;19;19921;-60
2022/06/16 04:54:42;;;;;;;;;;;;;;;-143.90;100.00;54966.28;3045005;19;19922;-61
2022/06/16 04:55:54;;;;;;;;;;;;;;;-143.90;100.00;54954.38;3049674;19;19939;-61
2022/06/16 04:57:08;;;;;;;;;;;;;;;-143.90;100.00;54976.19;3047828;19;20236;-61
2022/06/16 04:58:18;;;;;;;;;;;;;;;-143.90;100.00;54996.06;3046578;19;19918;-61
2022/06/16 04:59:42;;;;;;;;;;;;;;;-143.90;100.00;54964.28;3048094;19;19982;-60
2022/06/16 05:01:08;;;;;;;;;;;;;;;-143.90;100.00;54940.47;3048359;19;20839;-61
2022/06/16 05:02:29;;;;;;;;;;;;;;;-143.90;100.00;54958.34;3048196;19;19943;-60
2022/06/16 05:03:44;;;;;;;;;;;;;;;-143.90;100.00;54996.06;3045929;19;19983;-61
2022/06/16 05:05:14;;;;;;;;;;;;;;;-143.90;100.00;54980.19;3048078;19;19926;-61
2022/06/16 05:06:32;;;;;;;;;;;;;;;-143.90;100.00;55019.88;3050327;19;19994;-61
2022/06/16 05:07:47;;;;;;;;;;;;;;;-143.90;100.00;54948.41;3049249;19;20336;-62
2022/06/16 05:09:01;;;;;;;;;;;;;;;-143.90;100.00;54956.34;3048251;19;19926;-62
2022/06/16 05:10:14;;;;;;;;;;;;;;;-143.90;100.00;54976.19;3048839;19;19929;-61
2022/06/16 05:11:22;;;;;;;;;;;;;;;-143.90;100.00;54968.25;3045940;19;19918;-61
2022/06/16 05:12:30;;;;;;;;;;;;;;;-143.90;100.00;54982.16;3047857;19;20328;-61
2022/06/16 05:13:40;;;;;;;;;;;;;;;-143.90;100.00;54964.28;3050199;19;19919;-62
2022/06/16 05:15:00;;;;;;;;;;;;;;;-143.90;100.00;54972.22;3050373;19;20599;-61
2022/06/16 05:16:36;;;;;;;;;;;;;;;-143.90;100.00;54958.34;3049302;19;20389;-61
2022/06/16 05:17:55;;;;;;;;;;;;;;;-143.90;100.00;54932.53;3047731;19;19943;-62
2022/06/16 05:19:16;;;;;;;;;;;;;;;-143.90;100.00;54936.50;3047174;19;19934;-62
2022/06/16 05:20:36;;;;;;;;;;;;;;;-143.90;100.00;54972.22;3046972;19;19938;-61
2022/06/16 05:21:53;;;;;;;;;;;;;;;-143.90;100.00;54960.31;3045497;19;19982;-61
2022/06/16 05:23:03;;;;;;;;;;;;;;;-143.90;100.00;54924.59;3048711;19;19926;-62
2022/06/16 05:24:22;;;;;;;;;;;;;;;-143.90;100.00;54940.47;3047602;19;19958;-61
2022/06/16 05:25:59;;;;;;;;;;;;;;;-143.90;100.00;54948.41;3046477;19;20661;-61
2022/06/16 05:27:20;;;;;;;;;;;;;;;-143.90;99.20;54940.47;3048458;19;19927;-61
2022/06/16 05:28:32;;;;;;;;;;;;;;;-143.90;95.49;54912.66;3046745;19;21524;-62
2022/06/16 05:30:08;;;;;;;;;;;;;;;-143.90;89.52;54892.81;3046666;19;19925;-61
2022/06/16 05:31:15;;;;;;;;;;;;;;;-143.90;86.95;54908.69;3047626;19;19930;-61
2022/06/16 05:32:28;;;;;;;;;;;;;;;-143.90;91.47;54948.41;3046317;19;19931;-62
2022/06/16 05:33:42;;;;;;;;;;;;;;;-143.90;89.71;54936.50;3047956;19;19925;-62
2022/06/16 05:35:02;;;;;;;;;;;;;;;-143.90;90.80;54910.69;3047899;19;20010;-62
2022/06/16 05:36:26;;;;;;;;;;;;;;;-143.90;89.75;54952.38;3045552;19;19919;-61
2022/06/16 05:37:38;;;;;;;;;;;;;;;-143.90;88.77;54938.47;3049712;19;19942;-61
2022/06/16 05:38:57;;;;;;;;;;;;;;;-143.90;86.17;54926.56;3047471;19;19951;-61
2022/06/16 05:40:05;;;;;;;;;;;;;;;-143.90;86.52;54924.59;3046753;19;19936;-61
2022/06/16 05:41:16;;;;;;;;;;;;;;;-143.90;86.83;54928.56;3047550;19;19922;-62
2022/06/16 05:42:35;;;;;;;;;;;;;;;-143.90;88.08;54940.47;3049914;19;19929;-62